Time;durP1;ratioP1;P1;durP2;ratioP2;P2;SDS_P1;SDS_P2;PMS_P1;PMS_P2;Temp;Humidity;BMP_temperature;BMP_pressure;BME280_temperature;BME280_humidity;BME280_pressure;Samples;Min_cycle;Max_cycle;Signal;HPM_P1;HPM_P2
2024/01/18 00:01:10;;;;;;;11.18;8.65;;;8.30;72.80;;;;;;5009189;28;20212;-69
2024/01/18 00:03:39;;;;;;;9.18;8.15;;;8.30;72.80;;;;;;5014153;28;20037;-69
2024/01/18 00:06:05;;;;;;;8.90;7.80;;;8.30;72.80;;;;;;5013198;28;20401;-69
2024/01/18 00:08:30;;;;;;;8.43;7.47;;;8.20;72.80;;;;;;5011285;28;20033;-69
2024/01/18 00:10:56;;;;;;;8.77;6.90;;;8.30;72.90;;;;;;4995177;28;20054;-69
2024/01/18 00:13:22;;;;;;;9.50;8.35;;;8.20;72.80;;;;;;5013842;28;20033;-69
2024/01/18 00:15:47;;;;;;;9.93;8.63;;;8.20;72.80;;;;;;4994552;28;20037;-69
2024/01/18 00:18:13;;;;;;;9.30;7.85;;;8.20;72.90;;;;;;5010481;28;20045;-69
2024/01/18 00:20:38;;;;;;;9.18;7.80;;;8.20;72.90;;;;;;4994280;28;20037;-69
2024/01/18 00:23:04;;;;;;;11.57;9.70;;;8.20;73.00;;;;;;5026794;28;20082;-69
2024/01/18 00:25:30;;;;;;;10.55;8.82;;;8.10;72.90;;;;;;5014688;28;20037;-69
2024/01/18 00:27:55;;;;;;;9.38;8.02;;;8.10;72.80;;;;;;5013508;28;20033;-69
2024/01/18 00:30:21;;;;;;;10.02;8.63;;;8.20;73.60;;;;;;5010428;28;20044;-69
2024/01/18 00:32:46;;;;;;;9.80;8.80;;;8.20;72.80;;;;;;5043282;28;20037;-69
2024/01/18 00:35:12;;;;;;;8.95;8.05;;;8.20;72.80;;;;;;4997150;28;20107;-69
2024/01/18 00:37:38;;;;;;;9.55;8.55;;;8.20;72.80;;;;;;5029441;28;20045;-69
2024/01/18 00:40:04;;;;;;;9.68;8.20;;;8.20;72.90;;;;;;5010612;28;20045;-69
2024/01/18 00:42:29;;;;;;;11.38;9.27;;;8.20;72.90;;;;;;5008304;28;20046;-69
2024/01/18 00:44:55;;;;;;;9.65;8.68;;;8.20;72.80;;;;;;5012529;28;20068;-69
2024/01/18 00:47:21;;;;;;;8.80;7.90;;;8.20;72.80;;;;;;5011794;28;20113;-69
2024/01/18 00:49:46;;;;;;;9.02;7.85;;;8.20;72.80;;;;;;5012726;28;20112;-69
2024/01/18 00:52:12;;;;;;;10.63;8.05;;;8.10;72.80;;;;;;5028787;28;20041;-69
2024/01/18 00:54:37;;;;;;;10.45;8.65;;;8.10;72.80;;;;;;5030082;28;20072;-69
2024/01/18 00:57:03;;;;;;;10.40;7.82;;;8.10;72.70;;;;;;4995596;28;20515;-69
2024/01/18 00:59:29;;;;;;;9.00;7.78;;;8.10;72.70;;;;;;5010148;28;20041;-69
2024/01/18 01:01:54;;;;;;;10.35;7.25;;;8.10;72.70;;;;;;5022661;28;20038;-69
2024/01/18 01:04:20;;;;;;;8.85;7.75;;;8.10;72.70;;;;;;5012882;28;20132;-69
2024/01/18 01:06:46;;;;;;;7.47;6.78;;;8.00;72.70;;;;;;5012625;28;20433;-69
2024/01/18 01:09:11;;;;;;;10.90;9.13;;;8.00;72.70;;;;;;5009902;28;20042;-69
2024/01/18 01:11:37;;;;;;;8.63;7.72;;;8.00;72.70;;;;;;5010078;28;20058;-70
2024/01/18 01:14:02;;;;;;;8.63;7.50;;;8.00;72.60;;;;;;5012006;28;20029;-69
2024/01/18 01:16:28;;;;;;;9.55;8.25;;;8.00;72.70;;;;;;5011797;28;20044;-69
2024/01/18 01:18:54;;;;;;;9.32;8.27;;;8.00;72.60;;;;;;4998681;28;20041;-69
2024/01/18 01:21:19;;;;;;;9.13;7.45;;;8.10;72.60;;;;;;5030094;28;20048;-69
2024/01/18 01:23:48;;;;;;;11.70;7.82;;;8.00;72.50;;;;;;5005233;28;20030;-69
2024/01/18 01:26:15;;;;;;;12.07;7.35;;;8.00;72.60;;;;;;5016771;28;20041;-69
2024/01/18 01:28:42;;;;;;;10.23;7.72;;;8.10;72.60;;;;;;4993650;28;20037;-69
2024/01/18 01:31:07;;;;;;;10.73;7.95;;;8.10;72.70;;;;;;5002371;28;20042;-69
2024/01/18 01:33:34;;;;;;;11.82;7.32;;;8.00;72.60;;;;;;5013243;28;20100;-69
2024/01/18 01:35:59;;;;;;;7.30;6.15;;;8.00;72.60;;;;;;5009391;28;20053;-70
2024/01/18 01:38:25;;;;;;;7.80;6.72;;;8.00;72.60;;;;;;5001345;28;20041;-69
2024/01/18 01:40:51;;;;;;;7.95;6.95;;;8.00;72.60;;;;;;5013307;28;20045;-69
2024/01/18 01:43:17;;;;;;;8.23;7.43;;;8.00;72.60;;;;;;5013555;28;20405;-69
2024/01/18 01:45:43;;;;;;;7.75;5.72;;;8.00;72.50;;;;;;5008879;28;20504;-69
2024/01/18 01:48:08;;;;;;;7.82;6.35;;;8.00;72.60;;;;;;5012201;28;20044;-69
2024/01/18 01:50:35;;;;;;;8.05;5.95;;;8.00;72.60;;;;;;4995936;28;20071;-69
2024/01/18 01:53:00;;;;;;;5.65;5.07;;;8.00;72.60;;;;;;5012605;28;20121;-69
2024/01/18 01:55:26;;;;;;;6.88;5.57;;;8.00;72.60;;;;;;5012545;28;20124;-69
2024/01/18 01:57:52;;;;;;;6.65;5.78;;;8.00;72.60;;;;;;5011503;28;20096;-69
2024/01/18 02:00:18;;;;;;;7.03;6.32;;;8.00;72.60;;;;;;5014700;28;20045;-69
2024/01/18 02:02:43;;;;;;;6.93;5.60;;;8.00;73.30;;;;;;5006428;28;20104;-69
2024/01/18 02:05:09;;;;;;;8.38;5.30;;;7.90;72.50;;;;;;4999646;28;20420;-69
2024/01/18 02:07:38;;;;;;;7.70;5.57;;;7.90;72.60;;;;;;5018078;28;20046;-69
2024/01/18 02:10:05;;;;;;;9.05;6.93;;;7.90;72.60;;;;;;4996730;28;20116;-69
2024/01/18 02:12:30;;;;;;;6.05;5.10;;;7.90;72.60;;;;;;5016917;28;20052;-69
2024/01/18 02:14:57;;;;;;;6.28;4.75;;;7.90;72.60;;;;;;4984095;28;20045;-69
2024/01/18 02:17:22;;;;;;;7.82;5.72;;;7.90;72.60;;;;;;4999617;28;20508;-69
2024/01/18 02:19:48;;;;;;;4.75;4.30;;;7.90;72.60;;;;;;5032056;28;20061;-69
2024/01/18 02:22:13;;;;;;;6.70;5.10;;;7.90;72.60;;;;;;5032247;28;20061;-69
2024/01/18 02:24:51;;;;;;;6.10;4.43;;;7.90;72.60;;;;;;5015278;28;20095;-69
2024/01/18 02:27:17;;;;;;;6.78;5.03;;;7.90;72.60;;;;;;5020136;28;20081;-69
2024/01/18 02:29:43;;;;;;;6.82;5.03;;;7.90;72.60;;;;;;5013162;28;20025;-69
2024/01/18 02:32:09;;;;;;;4.90;4.40;;;7.80;72.60;;;;;;5012114;28;20106;-69
2024/01/18 02:34:39;;;;;;;5.95;4.00;;;7.90;72.60;;;;;;5014904;28;20041;-69
2024/01/18 02:37:07;;;;;;;4.90;4.40;;;7.90;72.60;;;;;;5015687;28;20124;-69
2024/01/18 02:39:33;;;;;;;5.22;3.95;;;7.90;72.60;;;;;;5064168;28;20052;-69
2024/01/18 02:41:59;;;;;;;5.55;4.57;;;7.80;72.60;;;;;;5014760;28;20450;-69
2024/01/18 02:44:25;;;;;;;4.95;4.03;;;7.80;72.60;;;;;;5015219;28;20045;-69
2024/01/18 02:46:50;;;;;;;6.70;4.38;;;7.80;72.60;;;;;;5014391;28;20061;-69
2024/01/18 02:49:16;;;;;;;5.07;3.83;;;7.80;72.50;;;;;;5012674;28;20146;-69
2024/01/18 02:51:42;;;;;;;4.80;3.97;;;7.80;72.50;;;;;;5010953;28;20049;-69
2024/01/18 02:54:07;;;;;;;6.13;3.30;;;7.80;72.50;;;;;;5014045;28;20504;-69
2024/01/18 02:56:33;;;;;;;6.63;4.30;;;7.80;72.50;;;;;;5014154;28;20049;-69
2024/01/18 02:58:59;;;;;;;4.32;3.70;;;7.70;72.50;;;;;;5012877;28;20342;-69
2024/01/18 03:01:24;;;;;;;4.75;3.72;;;7.70;72.50;;;;;;4998824;28;20052;-69
2024/01/18 03:03:50;;;;;;;4.43;3.40;;;7.70;72.50;;;;;;5012142;28;20402;-69
2024/01/18 03:06:15;;;;;;;4.00;3.70;;;7.70;72.50;;;;;;5015368;28;20080;-69
2024/01/18 03:08:41;;;;;;;6.78;3.53;;;7.80;72.50;;;;;;5010452;28;20037;-69
2024/01/18 03:11:07;;;;;;;4.82;3.85;;;7.70;72.50;;;;;;5011051;28;20103;-69
2024/01/18 03:13:32;;;;;;;5.05;3.30;;;7.70;72.50;;;;;;5032549;28;20481;-69
2024/01/18 03:15:58;;;;;;;5.03;3.00;;;7.70;72.40;;;;;;5030928;28;20057;-69
2024/01/18 03:18:23;;;;;;;4.93;3.47;;;7.70;72.40;;;;;;4997358;28;20037;-69
2024/01/18 03:20:49;;;;;;;4.57;3.28;;;7.70;72.50;;;;;;5013908;28;20045;-69
2024/01/18 03:23:15;;;;;;;3.10;2.80;;;7.70;72.50;;;;;;5005553;28;20033;-69
2024/01/18 03:25:41;;;;;;;4.03;3.10;;;7.70;72.40;;;;;;4995595;28;20101;-69
2024/01/18 03:28:07;;;;;;;3.97;3.20;;;7.70;72.50;;;;;;5043840;28;20053;-69
2024/01/18 03:30:32;;;;;;;3.95;3.00;;;7.70;72.50;;;;;;5014273;28;20125;-69
2024/01/18 03:32:58;;;;;;;3.72;3.08;;;7.70;72.50;;;;;;5012039;28;20038;-69
2024/01/18 03:35:23;;;;;;;5.18;2.70;;;7.70;72.50;;;;;;5013273;28;20455;-69
2024/01/18 03:37:49;;;;;;;4.57;2.65;;;7.70;72.50;;;;;;5031352;28;20038;-69
2024/01/18 03:40:15;;;;;;;4.57;3.03;;;7.70;72.50;;;;;;5031049;28;20038;-69
2024/01/18 03:42:43;;;;;;;6.22;2.90;;;7.60;72.50;;;;;;5030021;28;20409;-69
2024/01/18 03:45:09;;;;;;;3.30;3.03;;;7.70;72.50;;;;;;5015281;28;20038;-69
2024/01/18 03:47:34;;;;;;;3.70;3.10;;;7.70;72.50;;;;;;5014297;28;20053;-69
2024/01/18 03:50:00;;;;;;;5.88;2.80;;;7.60;72.40;;;;;;5011668;28;20037;-69
2024/01/18 03:52:26;;;;;;;3.90;3.03;;;7.60;72.40;;;;;;5029427;28;20116;-69
2024/01/18 03:54:51;;;;;;;4.78;2.80;;;7.60;72.30;;;;;;5014024;28;20072;-69
2024/01/18 03:57:17;;;;;;;4.57;2.28;;;7.60;72.30;;;;;;5014294;28;20069;-69
2024/01/18 03:59:47;;;;;;;4.30;2.60;;;7.60;72.30;;;;;;5011225;28;20120;-69
2024/01/18 04:02:13;;;;;;;3.42;2.05;;;7.60;72.30;;;;;;5009027;28;20041;-69
2024/01/18 04:04:39;;;;;;;3.38;2.63;;;7.60;72.30;;;;;;5012178;28;20397;-69
2024/01/18 04:07:04;;;;;;;3.42;2.72;;;7.60;72.20;;;;;;4997416;28;20045;-69
2024/01/18 04:09:30;;;;;;;5.13;2.85;;;7.60;72.30;;;;;;5012467;28;20076;-69
2024/01/18 04:11:56;;;;;;;4.30;2.95;;;7.60;72.20;;;;;;4980447;28;20049;-69
2024/01/18 04:14:21;;;;;;;2.85;2.30;;;7.60;72.30;;;;;;5013505;28;20042;-69
2024/01/18 04:16:47;;;;;;;2.72;2.47;;;7.60;72.30;;;;;;5014135;28;20049;-69
2024/01/18 04:19:13;;;;;;;2.47;2.20;;;7.60;73.00;;;;;;5009183;28;20041;-69
2024/01/18 04:21:38;;;;;;;2.47;2.28;;;7.60;72.20;;;;;;5008068;28;20121;-69
2024/01/18 04:24:05;;;;;;;4.10;2.38;;;7.60;72.30;;;;;;5009397;28;20409;-69
2024/01/18 04:26:33;;;;;;;3.42;2.15;;;7.60;72.30;;;;;;5007818;28;20044;-69
2024/01/18 04:29:00;;;;;;;2.95;2.33;;;7.60;72.30;;;;;;4978573;28;20036;-69
2024/01/18 04:31:26;;;;;;;2.20;1.88;;;7.60;72.30;;;;;;5014077;28;20501;-69
2024/01/18 04:33:51;;;;;;;4.88;2.10;;;7.60;72.30;;;;;;5034033;28;20067;-69
2024/01/18 04:36:17;;;;;;;3.42;1.98;;;7.60;72.30;;;;;;5009221;28;20288;-69
2024/01/18 04:38:42;;;;;;;3.72;2.50;;;7.60;72.30;;;;;;5028406;28;20037;-69
2024/01/18 04:41:08;;;;;;;2.30;1.92;;;7.60;72.30;;;;;;4996899;28;20091;-69
2024/01/18 04:43:34;;;;;;;3.53;2.25;;;7.60;72.30;;;;;;5029370;28;20045;-69
2024/01/18 04:46:00;;;;;;;3.40;2.05;;;7.60;72.30;;;;;;5012624;28;20049;-69
2024/01/18 04:48:25;;;;;;;3.97;1.98;;;7.60;72.30;;;;;;4995952;28;20037;-69
2024/01/18 04:50:51;;;;;;;3.00;2.08;;;7.60;72.30;;;;;;4996830;28;20042;-69
2024/01/18 04:53:17;;;;;;;2.63;1.80;;;7.60;72.30;;;;;;5027244;28;20038;-69
2024/01/18 04:55:43;;;;;;;2.65;2.45;;;7.60;72.20;;;;;;5011832;28;20107;-69
2024/01/18 04:58:08;;;;;;;2.92;2.47;;;7.60;72.30;;;;;;4996857;28;20041;-69
2024/01/18 05:00:34;;;;;;;2.53;1.90;;;7.70;72.30;;;;;;5008382;28;20053;-69
2024/01/18 05:03:00;;;;;;;3.70;2.10;;;7.60;72.20;;;;;;5012294;28;20041;-69
2024/01/18 05:05:25;;;;;;;3.15;2.13;;;7.70;72.30;;;;;;5011447;28;20034;-69
2024/01/18 05:07:51;;;;;;;3.95;2.28;;;7.70;72.20;;;;;;5029047;28;20412;-69
2024/01/18 05:10:17;;;;;;;1.90;1.73;;;7.70;72.20;;;;;;5013027;28;20128;-69
2024/01/18 05:12:44;;;;;;;2.20;1.90;;;7.70;72.30;;;;;;5012940;28;20413;-69
2024/01/18 05:15:10;;;;;;;2.28;2.00;;;7.70;72.30;;;;;;5013434;28;20049;-69
2024/01/18 05:17:37;;;;;;;2.60;1.38;;;7.70;72.30;;;;;;5027239;28;20117;-69
2024/01/18 05:20:03;;;;;;;2.92;2.00;;;7.70;72.30;;;;;;5013806;28;20052;-69
2024/01/18 05:22:32;;;;;;;2.25;1.70;;;7.70;72.40;;;;;;5009511;28;20046;-69
2024/01/18 05:24:59;;;;;;;1.88;1.70;;;7.70;72.40;;;;;;5025574;28;20041;-69
2024/01/18 05:27:25;;;;;;;2.97;1.80;;;7.60;72.30;;;;;;5011591;28;20139;-69
2024/01/18 05:29:51;;;;;;;2.15;1.80;;;7.60;72.30;;;;;;5011588;28;20042;-69
2024/01/18 05:32:20;;;;;;;3.55;2.10;;;7.60;72.30;;;;;;4996260;28;20044;-69
2024/01/18 05:34:49;;;;;;;1.88;1.50;;;7.60;73.10;;;;;;5013044;28;20180;-69
2024/01/18 05:37:15;;;;;;;2.95;1.70;;;7.60;72.40;;;;;;5026742;28;20468;-69
2024/01/18 05:39:41;;;;;;;2.50;1.75;;;7.60;72.40;;;;;;4996246;28;20053;-69
2024/01/18 05:42:06;;;;;;;2.65;1.70;;;7.60;72.40;;;;;;5012683;28;20042;-69
2024/01/18 05:44:33;;;;;;;1.90;1.42;;;7.60;72.40;;;;;;4996667;28;20049;-69
2024/01/18 05:46:58;;;;;;;2.15;1.50;;;7.60;72.40;;;;;;5027529;28;20048;-69
2024/01/18 05:49:24;;;;;;;1.92;1.70;;;7.60;72.50;;;;;;4994957;28;20038;-69
2024/01/18 05:51:50;;;;;;;3.72;1.85;;;7.60;72.40;;;;;;5012636;28;20038;-69
2024/01/18 05:54:15;;;;;;;2.00;1.65;;;7.60;72.40;;;;;;5012717;28;20041;-69
2024/01/18 05:56:41;;;;;;;3.65;1.70;;;7.60;72.40;;;;;;5026537;28;20041;-69
2024/01/18 05:59:07;;;;;;;5.15;1.83;;;7.60;72.40;;;;;;5028175;28;20053;-69
2024/01/18 06:01:32;;;;;;;2.72;1.48;;;7.50;72.40;;;;;;5009890;28;20037;-69
2024/01/18 06:03:58;;;;;;;4.15;1.60;;;7.50;72.40;;;;;;5013274;28;20049;-69
2024/01/18 06:06:24;;;;;;;2.40;1.63;;;7.60;72.50;;;;;;5011483;28;20056;-69
2024/01/18 06:08:49;;;;;;;2.88;1.52;;;7.50;72.40;;;;;;5011215;28;20042;-69
2024/01/18 06:11:17;;;;;;;1.60;1.15;;;7.60;72.50;;;;;;5012244;28;20045;-69
2024/01/18 06:13:43;;;;;;;1.45;1.35;;;7.50;72.40;;;;;;5029343;28;20072;-69
2024/01/18 06:16:11;;;;;;;2.40;1.23;;;7.50;72.40;;;;;;5008922;28;20076;-69
2024/01/18 06:18:37;;;;;;;2.50;1.35;;;7.50;72.30;;;;;;4997118;28;20054;-69
2024/01/18 06:21:06;;;;;;;1.73;1.48;;;7.50;72.40;;;;;;5011102;28;20077;-69
2024/01/18 06:23:32;;;;;;;1.70;1.20;;;7.50;72.40;;;;;;5012837;28;20522;-69
2024/01/18 06:25:57;;;;;;;1.85;1.02;;;7.50;72.40;;;;;;5011813;28;20044;-70
2024/01/18 06:28:23;;;;;;;2.05;1.10;;;7.50;72.40;;;;;;5025075;28;20037;-69
2024/01/18 06:30:49;;;;;;;2.55;1.00;;;7.50;72.40;;;;;;4991758;28;20048;-67
2024/01/18 06:33:14;;;;;;;2.03;1.20;;;7.50;72.30;;;;;;5045030;28;20038;-67
2024/01/18 06:35:40;;;;;;;2.97;1.10;;;7.60;72.40;;;;;;4987665;28;20076;-67
2024/01/18 06:38:06;;;;;;;2.65;1.20;;;7.50;72.30;;;;;;5027646;28;20072;-67
2024/01/18 06:40:31;;;;;;;3.22;1.08;;;7.60;72.40;;;;;;5029215;28;20045;-74
2024/01/18 06:42:57;;;;;;;1.92;1.00;;;7.60;72.40;;;;;;5013151;28;20052;-72
2024/01/18 06:45:22;;;;;;;1.25;1.15;;;7.70;72.40;;;;;;4982313;28;20041;-68
2024/01/18 06:47:48;;;;;;;2.22;1.20;;;7.60;72.30;;;;;;5014966;28;20124;-68
2024/01/18 06:50:15;;;;;;;1.58;1.15;;;7.70;72.30;;;;;;5032227;28;20037;-68
2024/01/18 06:52:41;;;;;;;2.92;1.08;;;7.70;72.30;;;;;;5033222;28;20096;-68
2024/01/18 06:55:08;;;;;;;2.25;1.10;;;7.80;72.30;;;;;;5021075;28;20525;-69
2024/01/18 06:57:34;;;;;;;2.72;1.02;;;7.70;72.10;;;;;;5015287;28;20052;-68
2024/01/18 07:00:00;;;;;;;1.00;0.90;;;7.80;72.10;;;;;;5012808;28;20070;-69
2024/01/18 07:02:25;;;;;;;2.22;0.80;;;7.80;72.10;;;;;;5002641;28;20046;-68
2024/01/18 07:04:51;;;;;;;2.20;1.20;;;7.80;72.10;;;;;;5032053;28;20038;-68
2024/01/18 07:07:17;;;;;;;2.13;1.10;;;7.80;72.00;;;;;;5031099;28;20056;-68
2024/01/18 07:09:43;;;;;;;1.00;0.75;;;7.80;72.00;;;;;;5032100;28;20116;-69
2024/01/18 07:12:09;;;;;;;1.58;0.70;;;7.90;72.00;;;;;;4998930;28;20472;-69
2024/01/18 07:14:35;;;;;;;4.60;1.05;;;7.90;72.00;;;;;;5032139;28;20053;-68
2024/01/18 07:17:01;;;;;;;1.70;1.00;;;7.90;72.00;;;;;;5031923;28;20373;-68
2024/01/18 07:19:27;;;;;;;1.15;1.00;;;7.90;71.90;;;;;;5015154;28;20079;-68
2024/01/18 07:21:53;;;;;;;0.50;0.50;;;7.90;72.00;;;;;;5013898;28;20073;-68
2024/01/18 07:24:21;;;;;;;1.88;0.77;;;7.90;71.90;;;;;;5029384;28;20079;-69
2024/01/18 07:26:47;;;;;;;2.30;1.10;;;7.90;71.90;;;;;;4979750;28;20148;-69
2024/01/18 07:29:13;;;;;;;0.82;0.82;;;7.90;71.90;;;;;;5018188;28;20515;-69
2024/01/18 07:31:39;;;;;;;3.38;0.73;;;7.90;71.90;;;;;;5031183;28;20029;-70
2024/01/18 07:34:04;;;;;;;0.70;0.70;;;7.90;71.90;;;;;;5030357;28;20100;-70
2024/01/18 07:36:30;;;;;;;1.08;0.85;;;7.90;71.90;;;;;;5014120;28;20481;-69
2024/01/18 07:38:57;;;;;;;1.52;0.85;;;7.90;71.90;;;;;;4998102;28;20100;-70
2024/01/18 07:41:22;;;;;;;0.88;0.80;;;7.90;71.90;;;;;;5030263;28;20052;-69
2024/01/18 07:43:48;;;;;;;0.73;0.70;;;7.90;71.90;;;;;;5030453;28;20049;-69
2024/01/18 07:46:14;;;;;;;1.08;0.70;;;7.90;71.80;;;;;;5014085;28;20037;-69
2024/01/18 07:48:39;;;;;;;1.67;0.85;;;7.90;71.90;;;;;;5014527;28;20065;-69
2024/01/18 07:51:05;;;;;;;1.90;1.02;;;7.90;72.60;;;;;;5013310;28;20495;-70
2024/01/18 07:53:30;;;;;;;1.58;0.70;;;7.90;71.70;;;;;;5012859;28;20033;-70
2024/01/18 07:55:56;;;;;;;0.70;0.70;;;7.90;71.70;;;;;;5012963;28;20045;-70
2024/01/18 07:58:22;;;;;;;1.92;0.80;;;7.90;71.70;;;;;;5014093;28;20037;-70
2024/01/18 08:00:48;;;;;;;2.00;0.70;;;7.90;71.70;;;;;;5030095;28;20409;-70
2024/01/18 08:03:13;;;;;;;1.10;0.75;;;7.90;71.70;;;;;;5004027;28;20053;-70
2024/01/18 08:05:39;;;;;;;1.27;0.65;;;7.90;71.70;;;;;;5000450;28;20508;-69
2024/01/18 08:08:05;;;;;;;1.50;0.85;;;7.90;71.70;;;;;;5030388;28;20499;-70
2024/01/18 08:10:32;;;;;;;1.75;0.88;;;7.90;71.70;;;;;;5014045;28;20057;-69
2024/01/18 08:12:59;;;;;;;0.98;0.90;;;7.90;71.70;;;;;;5014428;28;20092;-69
2024/01/18 08:15:25;;;;;;;1.17;0.90;;;7.90;71.70;;;;;;5014716;28;20041;-69
2024/01/18 08:17:50;;;;;;;1.10;0.98;;;7.90;71.70;;;;;;5013817;28;20045;-69
2024/01/18 08:20:16;;;;;;;1.25;0.98;;;7.90;71.80;;;;;;5029768;28;20056;-68
2024/01/18 08:22:44;;;;;;;1.20;0.70;;;7.90;71.70;;;;;;5014187;28;20063;-69
2024/01/18 08:25:13;;;;;;;3.33;1.05;;;8.00;71.80;;;;;;5028561;28;20045;-69
2024/01/18 08:27:39;;;;;;;0.75;0.75;;;7.90;71.80;;;;;;5012007;28;20041;-68
2024/01/18 08:30:06;;;;;;;0.88;0.88;;;7.90;71.80;;;;;;4996400;28;20129;-68
2024/01/18 08:32:34;;;;;;;1.02;0.65;;;8.00;71.90;;;;;;5012326;28;20396;-69
2024/01/18 08:35:04;;;;;;;1.65;0.85;;;8.00;71.90;;;;;;5016657;28;20045;-70
2024/01/18 08:37:35;;;;;;;2.97;1.08;;;8.00;71.90;;;;;;5021845;28;20049;-69
2024/01/18 08:40:02;;;;;;;1.70;0.80;;;8.00;71.90;;;;;;5010316;28;20033;-69
2024/01/18 08:42:27;;;;;;;1.38;0.85;;;8.00;72.00;;;;;;5030071;28;20076;-70
2024/01/18 08:44:53;;;;;;;2.20;1.05;;;8.00;72.00;;;;;;5010212;28;20069;-70
2024/01/18 08:47:19;;;;;;;1.70;1.02;;;8.00;72.00;;;;;;5006751;28;20509;-70
2024/01/18 08:49:44;;;;;;;1.40;0.80;;;8.00;72.00;;;;;;5012739;28;20056;-70
2024/01/18 08:52:10;;;;;;;1.75;0.85;;;8.00;72.00;;;;;;5029539;28;20046;-70
2024/01/18 08:54:36;;;;;;;1.23;0.88;;;8.00;72.00;;;;;;5013495;28;20038;-71
2024/01/18 08:57:02;;;;;;;1.92;1.00;;;8.00;72.00;;;;;;4980627;28;20148;-71
2024/01/18 08:59:27;;;;;;;1.80;0.80;;;8.00;72.80;;;;;;4980837;28;20045;-71
2024/01/18 09:01:53;;;;;;;1.55;1.00;;;8.00;72.00;;;;;;5014051;28;20065;-71
2024/01/18 09:04:19;;;;;;;0.98;0.88;;;8.00;72.00;;;;;;4997361;28;20077;-71
2024/01/18 09:06:44;;;;;;;2.85;0.82;;;8.00;72.10;;;;;;5009125;28;20045;-71
2024/01/18 09:09:10;;;;;;;1.77;0.95;;;8.00;72.10;;;;;;4976737;28;20088;-71
2024/01/18 09:11:37;;;;;;;1.92;0.90;;;8.00;72.20;;;;;;4981278;28;20138;-71
2024/01/18 09:14:03;;;;;;;2.22;0.90;;;8.00;72.30;;;;;;5013787;28;20072;-71
2024/01/18 09:16:30;;;;;;;2.17;1.15;;;8.00;72.30;;;;;;5030400;28;20127;-71
2024/01/18 09:18:56;;;;;;;1.42;1.23;;;8.00;72.30;;;;;;5044584;28;20045;-71
2024/01/18 09:21:21;;;;;;;1.90;0.90;;;7.90;72.30;;;;;;5013434;28;20424;-71
2024/01/18 09:23:47;;;;;;;1.38;0.95;;;7.90;72.30;;;;;;5010421;28;20161;-71
2024/01/18 09:26:13;;;;;;;4.38;1.38;;;7.90;72.40;;;;;;4997197;28;20046;-71
2024/01/18 09:28:38;;;;;;;2.70;1.33;;;7.90;72.50;;;;;;5009862;28;20125;-71
2024/01/18 09:31:04;;;;;;;2.17;1.17;;;7.90;72.50;;;;;;5012840;28;20041;-71
2024/01/18 09:33:30;;;;;;;2.28;1.15;;;7.90;72.50;;;;;;5013527;28;20040;-71
2024/01/18 09:35:55;;;;;;;1.30;0.90;;;7.90;72.50;;;;;;5009268;28;20144;-71
2024/01/18 09:38:21;;;;;;;1.85;1.00;;;7.90;72.60;;;;;;4972229;28;20064;-71
2024/01/18 09:40:47;;;;;;;4.40;1.35;;;7.90;72.50;;;;;;4997252;28;20400;-71
2024/01/18 09:43:14;;;;;;;1.27;0.98;;;8.00;72.60;;;;;;5010189;28;20044;-71
2024/01/18 09:45:41;;;;;;;1.17;1.08;;;8.00;72.90;;;;;;4978352;28;20132;-71
2024/01/18 09:48:07;;;;;;;1.08;0.85;;;8.00;72.70;;;;;;5013321;28;20046;-71
2024/01/18 09:50:33;;;;;;;1.90;1.00;;;8.00;72.70;;;;;;5013604;28;20045;-71
2024/01/18 09:52:58;;;;;;;0.80;0.70;;;7.90;72.70;;;;;;5013301;28;20033;-71
2024/01/18 09:55:24;;;;;;;2.65;1.20;;;7.90;72.70;;;;;;5013519;28;20037;-71
2024/01/18 09:57:49;;;;;;;0.88;0.80;;;8.00;72.80;;;;;;5013336;28;20107;-71
2024/01/18 10:00:15;;;;;;;1.88;1.23;;;7.90;72.80;;;;;;4980181;28;20052;-71
2024/01/18 10:02:41;;;;;;;1.65;0.90;;;7.90;72.80;;;;;;5009810;28;20041;-71
2024/01/18 10:05:07;;;;;;;1.58;1.02;;;8.00;72.90;;;;;;5007107;28;20064;-71
2024/01/18 10:07:33;;;;;;;1.45;1.05;;;8.00;72.90;;;;;;5013551;28;20037;-71
2024/01/18 10:09:58;;;;;;;4.45;1.20;;;8.00;73.00;;;;;;5029177;28;20445;-71
2024/01/18 10:12:33;;;;;;;0.90;0.90;;;8.00;73.00;;;;;;5009018;28;20054;-71
2024/01/18 10:14:59;;;;;;;1.90;0.88;;;8.00;73.10;;;;;;5010137;28;20042;-71
2024/01/18 10:17:26;;;;;;;1.90;0.80;;;8.00;73.10;;;;;;5014642;28;20064;-71
2024/01/18 10:20:00;;;;;;;1.05;0.80;;;8.00;73.10;;;;;;4990843;28;20046;-71
2024/01/18 10:22:28;;;;;;;2.05;1.10;;;8.00;73.20;;;;;;4987997;28;20500;-71
2024/01/18 10:24:54;;;;;;;1.55;1.10;;;8.00;73.20;;;;;;5016531;28;20108;-71
2024/01/18 10:27:20;;;;;;;0.93;0.80;;;8.00;73.20;;;;;;5033126;28;20608;-71
2024/01/18 10:29:45;;;;;;;2.50;0.90;;;8.00;73.20;;;;;;5016771;28;20147;-71
2024/01/18 10:32:11;;;;;;;1.20;0.80;;;8.00;73.30;;;;;;5032855;28;20120;-71
2024/01/18 10:34:37;;;;;;;0.85;0.65;;;8.00;73.40;;;;;;5001158;28;20051;-71
2024/01/18 10:37:03;;;;;;;1.95;0.90;;;8.00;73.40;;;;;;4970428;28;20048;-71
2024/01/18 10:39:39;;;;;;;1.75;1.00;;;8.00;73.40;;;;;;5013538;28;20037;-71
2024/01/18 10:42:07;;;;;;;0.80;0.60;;;8.00;73.50;;;;;;5016425;28;20049;-71
2024/01/18 10:44:37;;;;;;;1.95;0.80;;;8.00;73.40;;;;;;4981625;28;20049;-71
2024/01/18 10:47:08;;;;;;;1.95;1.23;;;8.00;73.50;;;;;;4980269;28;20516;-71
2024/01/18 10:49:34;;;;;;;1.27;0.60;;;8.00;73.50;;;;;;5006648;28;20057;-71
2024/01/18 10:51:59;;;;;;;1.15;0.60;;;8.00;73.70;;;;;;5000006;28;20043;-71
2024/01/18 10:54:25;;;;;;;1.83;1.00;;;8.00;73.60;;;;;;4999902;28;20041;-71
2024/01/18 10:56:51;;;;;;;2.40;0.93;;;8.00;73.70;;;;;;5015955;28;20404;-71
2024/01/18 10:59:16;;;;;;;0.98;0.88;;;8.00;73.70;;;;;;5015708;28;20037;-71
2024/01/18 11:01:42;;;;;;;1.85;0.90;;;8.00;73.80;;;;;;4978902;28;20095;-71
2024/01/18 11:04:07;;;;;;;1.88;0.90;;;8.00;73.80;;;;;;5041366;28;20081;-71
2024/01/18 11:06:33;;;;;;;1.88;0.55;;;8.00;73.80;;;;;;4999257;28;20128;-71
2024/01/18 11:08:59;;;;;;;2.70;1.05;;;8.10;73.90;;;;;;5015900;28;20456;-71
2024/01/18 11:11:24;;;;;;;1.80;0.85;;;8.10;73.90;;;;;;5012347;28;20129;-70
2024/01/18 11:13:50;;;;;;;1.13;0.60;;;8.10;74.00;;;;;;5005386;28;20041;-71
2024/01/18 11:16:16;;;;;;;0.63;0.52;;;8.10;74.00;;;;;;5014842;28;20181;-71
2024/01/18 11:18:48;;;;;;;3.22;0.80;;;8.10;74.00;;;;;;5015684;28;20565;-71
2024/01/18 11:21:14;;;;;;;2.75;1.00;;;8.10;74.00;;;;;;5016165;28;20038;-71
2024/01/18 11:23:40;;;;;;;1.48;0.73;;;8.10;74.10;;;;;;5012634;28;20049;-71
2024/01/18 11:26:07;;;;;;;1.77;0.70;;;8.20;74.20;;;;;;4997737;28;20100;-71
2024/01/18 11:28:33;;;;;;;2.10;0.70;;;8.20;74.20;;;;;;5014601;28;20056;-71
2024/01/18 11:31:02;;;;;;;1.58;0.82;;;8.20;74.30;;;;;;4999314;28;20557;-71
2024/01/18 11:33:28;;;;;;;2.75;1.10;;;8.20;74.30;;;;;;5016496;28;20124;-71
2024/01/18 11:35:55;;;;;;;1.15;0.80;;;8.20;74.50;;;;;;5012244;28;20581;-71
2024/01/18 11:38:33;;;;;;;0.70;0.63;;;8.20;74.50;;;;;;5015192;28;20080;-71
2024/01/18 11:41:02;;;;;;;1.38;0.70;;;8.20;74.50;;;;;;5000619;28;20393;-71
2024/01/18 11:43:56;;;;;;;1.13;0.68;;;8.20;74.50;;;;;;5031712;28;20115;-71
2024/01/18 11:46:37;;;;;;;1.52;0.60;;;8.20;74.60;;;;;;5030971;28;20099;-71
2024/01/18 11:49:03;;;;;;;2.67;0.77;;;8.20;74.60;;;;;;4999061;28;20029;-71
2024/01/18 11:51:29;;;;;;;0.63;0.50;;;8.20;74.60;;;;;;5011817;28;20508;-71
2024/01/18 11:53:55;;;;;;;1.02;0.50;;;8.20;74.70;;;;;;4992561;28;20057;-71
2024/01/18 11:56:22;;;;;;;2.35;0.70;;;8.20;74.60;;;;;;5015015;28;20563;-71
2024/01/18 11:58:47;;;;;;;1.42;0.65;;;8.20;74.70;;;;;;5014837;28;20120;-71
2024/01/18 12:01:14;;;;;;;1.98;0.60;;;8.20;74.80;;;;;;4982282;28;20149;-71
2024/01/18 12:03:40;;;;;;;1.30;0.73;;;8.20;74.80;;;;;;4998396;28;20538;-71
2024/01/18 12:06:05;;;;;;;0.65;0.65;;;8.20;74.90;;;;;;5011545;28;20049;-71
2024/01/18 12:08:31;;;;;;;1.15;0.57;;;8.20;74.90;;;;;;4990017;28;20382;-71
2024/01/18 12:10:57;;;;;;;0.60;0.50;;;8.30;74.90;;;;;;5010532;28;20086;-71
2024/01/18 12:13:23;;;;;;;0.82;0.52;;;8.30;74.90;;;;;;5021629;28;20100;-71
2024/01/18 12:15:52;;;;;;;0.82;0.60;;;8.30;75.00;;;;;;5015018;28;20111;-71
2024/01/18 12:18:18;;;;;;;0.70;0.60;;;8.30;75.00;;;;;;5011123;28;20505;-71
2024/01/18 12:20:43;;;;;;;4.47;0.65;;;8.30;75.10;;;;;;4995776;28;20084;-71
2024/01/18 12:23:14;;;;;;;1.50;0.68;;;8.30;75.80;;;;;;5019247;28;20044;-70
2024/01/18 12:25:40;;;;;;;1.33;0.52;;;8.30;75.10;;;;;;5034671;28;20045;-71
2024/01/18 12:28:05;;;;;;;1.75;0.73;;;8.30;75.10;;;;;;4998216;28;20041;-71
2024/01/18 12:30:31;;;;;;;2.22;0.80;;;8.30;75.10;;;;;;4997095;28;20107;-70
2024/01/18 12:32:57;;;;;;;1.27;0.50;;;8.30;75.10;;;;;;5011070;28;20409;-70
2024/01/18 12:35:23;;;;;;;0.88;0.50;;;8.30;75.20;;;;;;4992442;28;20040;-70
2024/01/18 12:37:49;;;;;;;2.38;1.00;;;8.30;75.20;;;;;;5013756;28;20065;-70
2024/01/18 12:40:15;;;;;;;1.95;0.65;;;8.30;75.20;;;;;;5011412;28;20050;-70
2024/01/18 12:42:41;;;;;;;1.00;0.70;;;8.30;75.30;;;;;;5010876;28;20115;-70
2024/01/18 12:45:06;;;;;;;1.00;0.50;;;8.40;75.40;;;;;;4994712;28;20038;-70
2024/01/18 12:47:32;;;;;;;2.38;0.70;;;8.30;75.30;;;;;;4981279;28;20056;-70
2024/01/18 12:49:58;;;;;;;0.88;0.50;;;8.30;75.40;;;;;;5014315;28;20045;-70
2024/01/18 12:52:29;;;;;;;1.70;0.68;;;8.40;75.50;;;;;;5010821;28;20482;-70